sensor_id;sensor_type;location;lat;lon;timestamp;temperature;humidity
40828;DHT22;26549;50.918;5.338;2023-07-13T00:02:24;18.80;99.90
40828;DHT22;26549;50.918;5.338;2023-07-13T00:04:51;18.70;99.90
40828;DHT22;26549;50.918;5.338;2023-07-13T00:07:17;18.80;99.90
40828;DHT22;26549;50.918;5.338;2023-07-13T00:09:46;18.80;99.90
40828;DHT22;26549;50.918;5.338;2023-07-13T00:12:28;18.70;99.90
40828;DHT22;26549;50.918;5.338;2023-07-13T00:14:56;18.70;99.90
40828;DHT22;26549;50.918;5.338;2023-07-13T00:17:23;18.60;99.90
40828;DHT22;26549;50.918;5.338;2023-07-13T00:19:50;18.60;99.90
40828;DHT22;26549;50.918;5.338;2023-07-13T00:22:16;18.50;99.90
40828;DHT22;26549;50.918;5.338;2023-07-13T00:24:44;18.60;99.90
40828;DHT22;26549;50.918;5.338;2023-07-13T00:27:10;18.50;99.90
40828;DHT22;26549;50.918;5.338;2023-07-13T00:29:36;18.50;99.90
40828;DHT22;26549;50.918;5.338;2023-07-13T00:32:06;18.50;99.90
40828;DHT22;26549;50.918;5.338;2023-07-13T00:34:32;18.50;99.90
40828;DHT22;26549;50.918;5.338;2023-07-13T00:36:59;18.40;99.90
40828;DHT22;26549;50.918;5.338;2023-07-13T00:39:25;18.50;99.90
40828;DHT22;26549;50.918;5.338;2023-07-13T00:41:51;18.50;99.90
40828;DHT22;26549;50.918;5.338;2023-07-13T00:44:19;18.50;99.90
40828;DHT22;26549;50.918;5.338;2023-07-13T00:46:45;18.50;99.90
40828;DHT22;26549;50.918;5.338;2023-07-13T00:49:19;18.50;99.90
40828;DHT22;26549;50.918;5.338;2023-07-13T00:51:52;18.30;99.90
40828;DHT22;26549;50.918;5.338;2023-07-13T00:54:32;18.30;99.90
40828;DHT22;26549;50.918;5.338;2023-07-13T00:57:01;18.30;99.90
40828;DHT22;26549;50.918;5.338;2023-07-13T00:59:28;18.20;99.90
40828;DHT22;26549;50.918;5.338;2023-07-13T01:01:54;18.20;99.90
40828;DHT22;26549;50.918;5.338;2023-07-13T01:04:20;18.20;99.90
40828;DHT22;26549;50.918;5.338;2023-07-13T01:06:46;18.20;99.90
40828;DHT22;26549;50.918;5.338;2023-07-13T01:09:13;18.30;99.90
40828;DHT22;26549;50.918;5.338;2023-07-13T01:11:40;18.30;99.90
40828;DHT22;26549;50.918;5.338;2023-07-13T01:14:06;18.30;99.90
40828;DHT22;26549;50.918;5.338;2023-07-13T01:16:34;18.30;99.90
40828;DHT22;26549;50.918;5.338;2023-07-13T01:19:01;18.30;99.90
40828;DHT22;26549;50.918;5.338;2023-07-13T01:21:31;18.20;99.90
40828;DHT22;26549;50.918;5.338;2023-07-13T01:23:57;18.20;99.90
40828;DHT22;26549;50.918;5.338;2023-07-13T01:26:23;18.10;99.90
40828;DHT22;26549;50.918;5.338;2023-07-13T01:28:49;18.20;99.90
40828;DHT22;26549;50.918;5.338;2023-07-13T01:31:15;18.20;99.90
40828;DHT22;26549;50.918;5.338;2023-07-13T01:33:41;18.20;99.90
40828;DHT22;26549;50.918;5.338;2023-07-13T01:36:09;18.10;99.90
40828;DHT22;26549;50.918;5.338;2023-07-13T01:38:36;18.10;99.90
40828;DHT22;26549;50.918;5.338;2023-07-13T01:41:03;18.10;99.90
40828;DHT22;26549;50.918;5.338;2023-07-13T01:43:29;18.10;99.90
40828;DHT22;26549;50.918;5.338;2023-07-13T01:45:56;18.20;99.90
40828;DHT22;26549;50.918;5.338;2023-07-13T01:48:22;18.20;99.90
40828;DHT22;26549;50.918;5.338;2023-07-13T01:50:47;18.10;99.90
40828;DHT22;26549;50.918;5.338;2023-07-13T01:53:13;18.10;99.90
40828;DHT22;26549;50.918;5.338;2023-07-13T01:55:41;18.00;99.90
40828;DHT22;26549;50.918;5.338;2023-07-13T01:58:06;18.00;99.90
40828;DHT22;26549;50.918;5.338;2023-07-13T02:00:32;18.00;99.90
40828;DHT22;26549;50.918;5.338;2023-07-13T02:02:58;18.00;99.90
40828;DHT22;26549;50.918;5.338;2023-07-13T02:05:24;18.00;99.90
40828;DHT22;26549;50.918;5.338;2023-07-13T02:07:50;17.90;99.90
40828;DHT22;26549;50.918;5.338;2023-07-13T02:10:16;18.00;99.90
40828;DHT22;26549;50.918;5.338;2023-07-13T02:12:42;18.00;99.90
40828;DHT22;26549;50.918;5.338;2023-07-13T02:15:09;17.90;99.90
40828;DHT22;26549;50.918;5.338;2023-07-13T02:17:35;18.00;99.90
40828;DHT22;26549;50.918;5.338;2023-07-13T02:20:02;17.90;99.90
40828;DHT22;26549;50.918;5.338;2023-07-13T02:22:28;17.80;99.90
40828;DHT22;26549;50.918;5.338;2023-07-13T02:24:54;17.80;99.90
40828;DHT22;26549;50.918;5.338;2023-07-13T02:27:20;17.80;99.90
40828;DHT22;26549;50.918;5.338;2023-07-13T02:29:47;17.80;99.90
40828;DHT22;26549;50.918;5.338;2023-07-13T02:32:12;17.80;99.90
40828;DHT22;26549;50.918;5.338;2023-07-13T02:34:40;17.90;99.90
40828;DHT22;26549;50.918;5.338;2023-07-13T02:37:06;17.90;99.90
40828;DHT22;26549;50.918;5.338;2023-07-13T02:39:31;17.90;99.90
40828;DHT22;26549;50.918;5.338;2023-07-13T02:41:59;17.90;99.90
40828;DHT22;26549;50.918;5.338;2023-07-13T02:44:25;17.80;99.90
40828;DHT22;26549;50.918;5.338;2023-07-13T02:46:51;17.80;99.90
40828;DHT22;26549;50.918;5.338;2023-07-13T02:49:17;17.80;99.90
40828;DHT22;26549;50.918;5.338;2023-07-13T02:51:43;17.70;99.90
40828;DHT22;26549;50.918;5.338;2023-07-13T02:54:09;17.70;99.90
40828;DHT22;26549;50.918;5.338;2023-07-13T02:56:37;17.70;99.90
40828;DHT22;26549;50.918;5.338;2023-07-13T02:59:04;17.80;99.90
40828;DHT22;26549;50.918;5.338;2023-07-13T03:01:31;17.80;99.90
40828;DHT22;26549;50.918;5.338;2023-07-13T03:04:02;17.80;99.90
40828;DHT22;26549;50.918;5.338;2023-07-13T03:06:28;17.70;99.90
40828;DHT22;26549;50.918;5.338;2023-07-13T03:08:55;17.60;99.90
40828;DHT22;26549;50.918;5.338;2023-07-13T03:11:21;17.60;99.90
40828;DHT22;26549;50.918;5.338;2023-07-13T03:13:47;17.60;99.90
40828;DHT22;26549;50.918;5.338;2023-07-13T03:16:15;17.60;99.90
40828;DHT22;26549;50.918;5.338;2023-07-13T03:18:44;17.50;99.90
40828;DHT22;26549;50.918;5.338;2023-07-13T03:21:10;17.50;99.90
40828;DHT22;26549;50.918;5.338;2023-07-13T03:23:35;17.40;99.90
40828;DHT22;26549;50.918;5.338;2023-07-13T03:26:06;17.60;99.90
40828;DHT22;26549;50.918;5.338;2023-07-13T03:28:34;17.50;99.90
40828;DHT22;26549;50.918;5.338;2023-07-13T03:31:09;17.60;99.90
40828;DHT22;26549;50.918;5.338;2023-07-13T03:33:35;17.40;99.90
40828;DHT22;26549;50.918;5.338;2023-07-13T03:36:02;17.50;99.90
40828;DHT22;26549;50.918;5.338;2023-07-13T03:38:28;17.40;99.90
40828;DHT22;26549;50.918;5.338;2023-07-13T03:40:55;17.30;99.90
40828;DHT22;26549;50.918;5.338;2023-07-13T03:43:21;17.30;99.90
40828;DHT22;26549;50.918;5.338;2023-07-13T03:45:48;17.40;99.90
40828;DHT22;26549;50.918;5.338;2023-07-13T03:48:14;17.40;99.90
40828;DHT22;26549;50.918;5.338;2023-07-13T03:50:40;17.50;99.90
40828;DHT22;26549;50.918;5.338;2023-07-13T03:53:06;17.50;99.90
40828;DHT22;26549;50.918;5.338;2023-07-13T03:55:33;17.50;99.90
40828;DHT22;26549;50.918;5.338;2023-07-13T03:58:26;17.50;99.90
40828;DHT22;26549;50.918;5.338;2023-07-13T04:00:53;17.60;99.90
40828;DHT22;26549;50.918;5.338;2023-07-13T04:03:19;17.60;99.90
40828;DHT22;26549;50.918;5.338;2023-07-13T04:05:45;17.60;99.90
40828;DHT22;26549;50.918;5.338;2023-07-13T04:08:11;17.50;99.90
40828;DHT22;26549;50.918;5.338;2023-07-13T04:10:37;17.60;99.90
40828;DHT22;26549;50.918;5.338;2023-07-13T04:13:04;17.60;99.90
40828;DHT22;26549;50.918;5.338;2023-07-13T04:15:31;17.60;99.90
40828;DHT22;26549;50.918;5.338;2023-07-13T04:17:58;17.70;99.90
40828;DHT22;26549;50.918;5.338;2023-07-13T04:20:28;17.70;99.90
40828;DHT22;26549;50.918;5.338;2023-07-13T04:22:54;17.70;99.90
40828;DHT22;26549;50.918;5.338;2023-07-13T04:25:21;17.70;99.90
40828;DHT22;26549;50.918;5.338;2023-07-13T04:27:47;17.80;99.90
40828;DHT22;26549;50.918;5.338;2023-07-13T04:30:12;17.70;99.90
40828;DHT22;26549;50.918;5.338;2023-07-13T04:32:40;17.80;99.90
40828;DHT22;26549;50.918;5.338;2023-07-13T04:35:06;17.70;99.90
40828;DHT22;26549;50.918;5.338;2023-07-13T04:37:32;17.80;99.90
40828;DHT22;26549;50.918;5.338;2023-07-13T04:39:58;17.70;99.90
40828;DHT22;26549;50.918;5.338;2023-07-13T04:42:23;17.80;99.90
40828;DHT22;26549;50.918;5.338;2023-07-13T04:44:50;17.80;99.90
40828;DHT22;26549;50.918;5.338;2023-07-13T04:47:17;17.80;99.90
40828;DHT22;26549;50.918;5.338;2023-07-13T04:49:43;17.80;99.90
40828;DHT22;26549;50.918;5.338;2023-07-13T04:52:08;17.90;99.90
40828;DHT22;26549;50.918;5.338;2023-07-13T04:54:34;18.00;99.90
40828;DHT22;26549;50.918;5.338;2023-07-13T04:57:00;18.00;99.90
40828;DHT22;26549;50.918;5.338;2023-07-13T04:59:26;18.00;99.90
40828;DHT22;26549;50.918;5.338;2023-07-13T05:01:52;18.00;99.90
40828;DHT22;26549;50.918;5.338;2023-07-13T05:04:18;18.00;99.90
40828;DHT22;26549;50.918;5.338;2023-07-13T05:06:45;17.90;99.90
40828;DHT22;26549;50.918;5.338;2023-07-13T05:09:11;17.80;99.90
40828;DHT22;26549;50.918;5.338;2023-07-13T05:11:39;17.80;99.90
40828;DHT22;26549;50.918;5.338;2023-07-13T05:14:05;17.80;99.90
40828;DHT22;26549;50.918;5.338;2023-07-13T05:16:30;17.80;99.90
40828;DHT22;26549;50.918;5.338;2023-07-13T05:18:58;17.80;99.90
40828;DHT22;26549;50.918;5.338;2023-07-13T05:21:24;18.00;99.90
40828;DHT22;26549;50.918;5.338;2023-07-13T05:23:51;18.00;99.90
40828;DHT22;26549;50.918;5.338;2023-07-13T05:26:16;18.10;99.90
40828;DHT22;26549;50.918;5.338;2023-07-13T05:28:42;18.00;99.90
40828;DHT22;26549;50.918;5.338;2023-07-13T05:31:09;18.10;99.90
40828;DHT22;26549;50.918;5.338;2023-07-13T05:33:35;18.10;99.90
40828;DHT22;26549;50.918;5.338;2023-07-13T05:36:01;18.00;99.90
40828;DHT22;26549;50.918;5.338;2023-07-13T05:38:27;18.00;99.90
40828;DHT22;26549;50.918;5.338;2023-07-13T05:40:54;18.10;99.90
40828;DHT22;26549;50.918;5.338;2023-07-13T05:43:22;18.00;99.90
40828;DHT22;26549;50.918;5.338;2023-07-13T05:45:48;18.10;99.90
40828;DHT22;26549;50.918;5.338;2023-07-13T05:48:15;18.30;99.90
40828;DHT22;26549;50.918;5.338;2023-07-13T05:50:41;18.30;99.90
40828;DHT22;26549;50.918;5.338;2023-07-13T05:53:06;18.30;99.90
40828;DHT22;26549;50.918;5.338;2023-07-13T05:55:33;18.30;99.90
40828;DHT22;26549;50.918;5.338;2023-07-13T05:58:00;18.20;99.90
40828;DHT22;26549;50.918;5.338;2023-07-13T06:00:26;18.20;99.90
40828;DHT22;26549;50.918;5.338;2023-07-13T06:02:52;18.30;99.90
40828;DHT22;26549;50.918;5.338;2023-07-13T06:05:18;18.40;99.90
40828;DHT22;26549;50.918;5.338;2023-07-13T06:07:43;18.30;99.90
40828;DHT22;26549;50.918;5.338;2023-07-13T06:10:10;18.30;99.90
40828;DHT22;26549;50.918;5.338;2023-07-13T06:12:35;18.50;99.90
40828;DHT22;26549;50.918;5.338;2023-07-13T06:15:01;18.50;99.90
40828;DHT22;26549;50.918;5.338;2023-07-13T06:17:28;18.60;99.90
40828;DHT22;26549;50.918;5.338;2023-07-13T06:19:54;18.60;99.90
40828;DHT22;26549;50.918;5.338;2023-07-13T06:22:21;18.60;99.90
40828;DHT22;26549;50.918;5.338;2023-07-13T06:24:46;18.60;99.90
40828;DHT22;26549;50.918;5.338;2023-07-13T06:27:12;18.70;99.90
40828;DHT22;26549;50.918;5.338;2023-07-13T06:29:38;18.80;99.90
40828;DHT22;26549;50.918;5.338;2023-07-13T06:32:05;18.90;99.90
40828;DHT22;26549;50.918;5.338;2023-07-13T06:34:31;18.90;99.90
40828;DHT22;26549;50.918;5.338;2023-07-13T06:36:57;18.90;99.90
40828;DHT22;26549;50.918;5.338;2023-07-13T06:39:22;18.80;99.90
40828;DHT22;26549;50.918;5.338;2023-07-13T06:41:48;18.90;99.90
40828;DHT22;26549;50.918;5.338;2023-07-13T06:44:14;19.00;99.90
40828;DHT22;26549;50.918;5.338;2023-07-13T06:46:40;19.00;99.90
40828;DHT22;26549;50.918;5.338;2023-07-13T06:49:05;19.10;99.90
40828;DHT22;26549;50.918;5.338;2023-07-13T06:51:32;19.20;99.90
40828;DHT22;26549;50.918;5.338;2023-07-13T06:53:59;19.40;99.90
40828;DHT22;26549;50.918;5.338;2023-07-13T06:56:24;19.30;99.90
40828;DHT22;26549;50.918;5.338;2023-07-13T06:58:50;19.30;99.90
40828;DHT22;26549;50.918;5.338;2023-07-13T07:01:16;19.40;99.90
40828;DHT22;26549;50.918;5.338;2023-07-13T07:03:42;19.50;99.90
40828;DHT22;26549;50.918;5.338;2023-07-13T07:06:17;19.40;99.90
40828;DHT22;26549;50.918;5.338;2023-07-13T07:08:44;19.50;99.90
40828;DHT22;26549;50.918;5.338;2023-07-13T07:11:18;19.50;99.90
40828;DHT22;26549;50.918;5.338;2023-07-13T07:13:44;19.70;99.90
40828;DHT22;26549;50.918;5.338;2023-07-13T07:16:10;19.60;99.90
40828;DHT22;26549;50.918;5.338;2023-07-13T07:18:35;19.60;99.90
40828;DHT22;26549;50.918;5.338;2023-07-13T07:21:02;19.50;99.90
40828;DHT22;26549;50.918;5.338;2023-07-13T07:23:28;19.60;99.90
40828;DHT22;26549;50.918;5.338;2023-07-13T07:25:53;19.60;99.90
40828;DHT22;26549;50.918;5.338;2023-07-13T07:28:20;19.70;99.90
40828;DHT22;26549;50.918;5.338;2023-07-13T07:30:46;19.70;99.90
40828;DHT22;26549;50.918;5.338;2023-07-13T07:33:12;19.70;99.90
40828;DHT22;26549;50.918;5.338;2023-07-13T07:35:38;19.80;99.90
40828;DHT22;26549;50.918;5.338;2023-07-13T07:38:04;19.90;99.90
40828;DHT22;26549;50.918;5.338;2023-07-13T07:40:30;19.90;99.90
40828;DHT22;26549;50.918;5.338;2023-07-13T07:42:56;20.10;99.90
40828;DHT22;26549;50.918;5.338;2023-07-13T07:45:22;20.10;99.90
40828;DHT22;26549;50.918;5.338;2023-07-13T07:47:49;20.10;99.90
40828;DHT22;26549;50.918;5.338;2023-07-13T07:50:15;20.10;99.90
40828;DHT22;26549;50.918;5.338;2023-07-13T07:52:41;20.10;99.90
40828;DHT22;26549;50.918;5.338;2023-07-13T07:55:10;20.10;99.90
40828;DHT22;26549;50.918;5.338;2023-07-13T07:57:36;20.00;99.90
40828;DHT22;26549;50.918;5.338;2023-07-13T08:00:02;20.00;99.90
40828;DHT22;26549;50.918;5.338;2023-07-13T08:02:27;20.10;99.90
40828;DHT22;26549;50.918;5.338;2023-07-13T08:04:53;20.10;99.90
40828;DHT22;26549;50.918;5.338;2023-07-13T08:07:19;20.30;99.90
40828;DHT22;26549;50.918;5.338;2023-07-13T08:09:45;20.50;99.90
40828;DHT22;26549;50.918;5.338;2023-07-13T08:12:12;20.70;99.90
40828;DHT22;26549;50.918;5.338;2023-07-13T08:14:38;20.90;99.90
40828;DHT22;26549;50.918;5.338;2023-07-13T08:17:04;21.00;99.90
40828;DHT22;26549;50.918;5.338;2023-07-13T08:19:30;21.00;99.90
40828;DHT22;26549;50.918;5.338;2023-07-13T08:21:56;21.10;99.90
40828;DHT22;26549;50.918;5.338;2023-07-13T08:24:23;21.10;99.90
40828;DHT22;26549;50.918;5.338;2023-07-13T08:26:50;21.20;99.90
40828;DHT22;26549;50.918;5.338;2023-07-13T08:29:16;21.20;99.90
40828;DHT22;26549;50.918;5.338;2023-07-13T08:31:42;21.10;99.90
40828;DHT22;26549;50.918;5.338;2023-07-13T08:34:08;21.20;99.90
40828;DHT22;26549;50.918;5.338;2023-07-13T08:36:34;21.20;99.90
40828;DHT22;26549;50.918;5.338;2023-07-13T08:38:59;21.30;99.90
40828;DHT22;26549;50.918;5.338;2023-07-13T08:41:25;21.40;99.90
40828;DHT22;26549;50.918;5.338;2023-07-13T08:43:56;21.30;99.90
40828;DHT22;26549;50.918;5.338;2023-07-13T08:46:33;21.30;99.90
40828;DHT22;26549;50.918;5.338;2023-07-13T08:49:16;21.50;99.90
40828;DHT22;26549;50.918;5.338;2023-07-13T08:51:47;21.50;99.90
40828;DHT22;26549;50.918;5.338;2023-07-13T08:56:54;21.40;99.90
40828;DHT22;26549;50.918;5.338;2023-07-13T08:59:28;21.40;99.90
40828;DHT22;26549;50.918;5.338;2023-07-13T09:04:56;21.50;99.90
40828;DHT22;26549;50.918;5.338;2023-07-13T09:15:31;21.60;99.90
40828;DHT22;26549;50.918;5.338;2023-07-13T09:18:04;21.80;99.90
40828;DHT22;26549;50.918;5.338;2023-07-13T09:20:39;21.80;99.90
40828;DHT22;26549;50.918;5.338;2023-07-13T09:23:14;21.70;99.90
40828;DHT22;26549;50.918;5.338;2023-07-13T09:25:42;21.80;99.90
40828;DHT22;26549;50.918;5.338;2023-07-13T09:28:19;22.00;99.90
40828;DHT22;26549;50.918;5.338;2023-07-13T09:33:19;22.30;99.90
40828;DHT22;26549;50.918;5.338;2023-07-13T09:35:46;22.60;99.90
40828;DHT22;26549;50.918;5.338;2023-07-13T09:38:16;22.60;99.90
40828;DHT22;26549;50.918;5.338;2023-07-13T09:43:35;22.60;99.90
40828;DHT22;26549;50.918;5.338;2023-07-13T09:46:01;22.70;99.90
40828;DHT22;26549;50.918;5.338;2023-07-13T09:48:36;22.70;99.90
40828;DHT22;26549;50.918;5.338;2023-07-13T09:51:15;22.80;99.90
40828;DHT22;26549;50.918;5.338;2023-07-13T09:53:42;22.70;99.90
40828;DHT22;26549;50.918;5.338;2023-07-13T09:56:25;22.60;99.90
40828;DHT22;26549;50.918;5.338;2023-07-13T09:58:51;22.30;99.90
40828;DHT22;26549;50.918;5.338;2023-07-13T10:01:35;22.30;99.90
40828;DHT22;26549;50.918;5.338;2023-07-13T10:04:02;22.40;99.90
40828;DHT22;26549;50.918;5.338;2023-07-13T10:06:35;22.30;99.90
40828;DHT22;26549;50.918;5.338;2023-07-13T10:09:01;22.20;99.90
40828;DHT22;26549;50.918;5.338;2023-07-13T10:11:28;22.20;99.90
40828;DHT22;26549;50.918;5.338;2023-07-13T10:14:00;22.20;99.90
40828;DHT22;26549;50.918;5.338;2023-07-13T10:16:30;22.40;99.90
40828;DHT22;26549;50.918;5.338;2023-07-13T10:19:01;22.50;99.90
40828;DHT22;26549;50.918;5.338;2023-07-13T10:21:32;22.60;99.90
40828;DHT22;26549;50.918;5.338;2023-07-13T10:24:23;22.70;99.90
40828;DHT22;26549;50.918;5.338;2023-07-13T10:27:05;22.70;99.90
40828;DHT22;26549;50.918;5.338;2023-07-13T10:29:38;22.90;99.90
40828;DHT22;26549;50.918;5.338;2023-07-13T10:32:13;22.90;99.90
40828;DHT22;26549;50.918;5.338;2023-07-13T10:34:40;22.90;99.90
40828;DHT22;26549;50.918;5.338;2023-07-13T10:37:18;23.10;99.90
40828;DHT22;26549;50.918;5.338;2023-07-13T10:39:47;23.00;99.90
40828;DHT22;26549;50.918;5.338;2023-07-13T10:42:17;23.00;99.90
40828;DHT22;26549;50.918;5.338;2023-07-13T10:44:44;23.00;99.50
40828;DHT22;26549;50.918;5.338;2023-07-13T10:47:15;23.10;99.80
40828;DHT22;26549;50.918;5.338;2023-07-13T10:49:42;22.90;99.80
40828;DHT22;26549;50.918;5.338;2023-07-13T10:52:40;22.60;99.90
40828;DHT22;26549;50.918;5.338;2023-07-13T10:58:22;22.20;99.90
40828;DHT22;26549;50.918;5.338;2023-07-13T11:03:20;22.30;99.90
40828;DHT22;26549;50.918;5.338;2023-07-13T11:05:51;22.60;99.90
40828;DHT22;26549;50.918;5.338;2023-07-13T11:08:34;22.90;99.90
40828;DHT22;26549;50.918;5.338;2023-07-13T11:11:07;23.40;99.90
40828;DHT22;26549;50.918;5.338;2023-07-13T11:24:52;24.30;98.10
40828;DHT22;26549;50.918;5.338;2023-07-13T11:27:44;24.30;95.90
40828;DHT22;26549;50.918;5.338;2023-07-13T11:33:17;24.20;97.10
40828;DHT22;26549;50.918;5.338;2023-07-13T11:38:20;24.20;97.00
40828;DHT22;26549;50.918;5.338;2023-07-13T11:40:47;24.20;96.70
40828;DHT22;26549;50.918;5.338;2023-07-13T11:43:15;24.20;97.10
40828;DHT22;26549;50.918;5.338;2023-07-13T11:45:42;24.20;97.00
40828;DHT22;26549;50.918;5.338;2023-07-13T11:51:02;24.30;97.30
40828;DHT22;26549;50.918;5.338;2023-07-13T11:53:44;24.40;97.50
40828;DHT22;26549;50.918;5.338;2023-07-13T11:56:11;24.40;96.10
40828;DHT22;26549;50.918;5.338;2023-07-13T11:58:38;24.50;96.20
40828;DHT22;26549;50.918;5.338;2023-07-13T12:01:04;24.40;95.50
40828;DHT22;26549;50.918;5.338;2023-07-13T12:03:32;24.30;96.70
40828;DHT22;26549;50.918;5.338;2023-07-13T12:06:04;24.40;95.30
40828;DHT22;26549;50.918;5.338;2023-07-13T12:08:38;24.50;95.10
40828;DHT22;26549;50.918;5.338;2023-07-13T12:11:16;24.50;95.50
40828;DHT22;26549;50.918;5.338;2023-07-13T12:13:44;24.40;95.20
40828;DHT22;26549;50.918;5.338;2023-07-13T12:16:30;24.60;95.90
40828;DHT22;26549;50.918;5.338;2023-07-13T12:19:00;24.80;95.10
40828;DHT22;26549;50.918;5.338;2023-07-13T12:21:31;24.70;95.30
40828;DHT22;26549;50.918;5.338;2023-07-13T12:23:57;24.70;95.30
40828;DHT22;26549;50.918;5.338;2023-07-13T12:26:23;24.70;95.10
40828;DHT22;26549;50.918;5.338;2023-07-13T12:28:53;24.80;94.60
40828;DHT22;26549;50.918;5.338;2023-07-13T12:31:41;24.50;94.00
40828;DHT22;26549;50.918;5.338;2023-07-13T12:34:10;24.40;93.70
40828;DHT22;26549;50.918;5.338;2023-07-13T12:37:01;24.50;94.10
40828;DHT22;26549;50.918;5.338;2023-07-13T12:39:33;24.40;94.60
40828;DHT22;26549;50.918;5.338;2023-07-13T12:42:28;24.70;94.70
40828;DHT22;26549;50.918;5.338;2023-07-13T12:45:19;24.80;94.10
40828;DHT22;26549;50.918;5.338;2023-07-13T12:47:48;24.70;94.50
40828;DHT22;26549;50.918;5.338;2023-07-13T12:50:17;24.60;94.60
40828;DHT22;26549;50.918;5.338;2023-07-13T12:52:44;24.60;94.70
40828;DHT22;26549;50.918;5.338;2023-07-13T12:55:18;24.60;94.10
40828;DHT22;26549;50.918;5.338;2023-07-13T12:57:54;24.90;94.20
40828;DHT22;26549;50.918;5.338;2023-07-13T13:03:02;24.30;94.10
40828;DHT22;26549;50.918;5.338;2023-07-13T13:05:30;24.50;93.60
40828;DHT22;26549;50.918;5.338;2023-07-13T13:07:56;24.40;93.70
40828;DHT22;26549;50.918;5.338;2023-07-13T13:10:22;24.10;92.70
40828;DHT22;26549;50.918;5.338;2023-07-13T13:12:49;23.80;93.20
40828;DHT22;26549;50.918;5.338;2023-07-13T13:15:15;23.80;93.30
40828;DHT22;26549;50.918;5.338;2023-07-13T13:17:42;23.70;93.30
40828;DHT22;26549;50.918;5.338;2023-07-13T13:20:19;23.40;93.80
40828;DHT22;26549;50.918;5.338;2023-07-13T13:22:45;23.30;94.40
40828;DHT22;26549;50.918;5.338;2023-07-13T13:25:12;23.40;94.40
40828;DHT22;26549;50.918;5.338;2023-07-13T13:27:42;23.40;94.50
40828;DHT22;26549;50.918;5.338;2023-07-13T13:30:13;23.30;94.70
40828;DHT22;26549;50.918;5.338;2023-07-13T13:32:41;23.20;95.40
40828;DHT22;26549;50.918;5.338;2023-07-13T13:35:14;23.20;98.00
40828;DHT22;26549;50.918;5.338;2023-07-13T13:37:41;23.00;99.10
40828;DHT22;26549;50.918;5.338;2023-07-13T13:40:19;22.90;99.90
40828;DHT22;26549;50.918;5.338;2023-07-13T13:42:45;22.60;99.90
40828;DHT22;26549;50.918;5.338;2023-07-13T13:45:11;22.30;99.90
40828;DHT22;26549;50.918;5.338;2023-07-13T13:47:44;22.10;99.90
40828;DHT22;26549;50.918;5.338;2023-07-13T13:50:19;22.00;99.90
40828;DHT22;26549;50.918;5.338;2023-07-13T13:52:46;22.00;99.90
40828;DHT22;26549;50.918;5.338;2023-07-13T13:55:19;21.70;99.90
40828;DHT22;26549;50.918;5.338;2023-07-13T13:57:46;21.50;99.90
40828;DHT22;26549;50.918;5.338;2023-07-13T14:00:14;21.50;99.90
40828;DHT22;26549;50.918;5.338;2023-07-13T14:02:48;21.30;99.90
40828;DHT22;26549;50.918;5.338;2023-07-13T14:05:20;21.20;99.90
40828;DHT22;26549;50.918;5.338;2023-07-13T14:07:47;21.20;99.90
40828;DHT22;26549;50.918;5.338;2023-07-13T14:10:17;21.00;99.90
40828;DHT22;26549;50.918;5.338;2023-07-13T14:12:54;20.90;99.90
40828;DHT22;26549;50.918;5.338;2023-07-13T14:15:26;21.10;99.90
40828;DHT22;26549;50.918;5.338;2023-07-13T14:17:53;21.20;99.90
40828;DHT22;26549;50.918;5.338;2023-07-13T14:20:21;21.30;99.90
40828;DHT22;26549;50.918;5.338;2023-07-13T14:22:49;21.60;99.90
40828;DHT22;26549;50.918;5.338;2023-07-13T14:25:17;21.70;99.90
40828;DHT22;26549;50.918;5.338;2023-07-13T14:27:44;21.70;99.90
40828;DHT22;26549;50.918;5.338;2023-07-13T14:32:39;21.90;99.90
40828;DHT22;26549;50.918;5.338;2023-07-13T14:35:06;21.90;99.90
40828;DHT22;26549;50.918;5.338;2023-07-13T14:37:31;21.90;99.90
40828;DHT22;26549;50.918;5.338;2023-07-13T14:39:57;21.90;99.90
40828;DHT22;26549;50.918;5.338;2023-07-13T14:42:23;21.90;99.90
40828;DHT22;26549;50.918;5.338;2023-07-13T14:44:49;22.00;99.90
40828;DHT22;26549;50.918;5.338;2023-07-13T14:47:15;22.20;99.90
40828;DHT22;26549;50.918;5.338;2023-07-13T14:49:43;22.10;99.90
40828;DHT22;26549;50.918;5.338;2023-07-13T14:52:17;22.20;99.90
40828;DHT22;26549;50.918;5.338;2023-07-13T14:54:44;22.30;99.90
40828;DHT22;26549;50.918;5.338;2023-07-13T14:57:17;22.50;99.90
40828;DHT22;26549;50.918;5.338;2023-07-13T14:59:44;22.60;99.90
40828;DHT22;26549;50.918;5.338;2023-07-13T15:02:27;22.70;99.90
40828;DHT22;26549;50.918;5.338;2023-07-13T15:04:53;22.60;99.90
40828;DHT22;26549;50.918;5.338;2023-07-13T15:07:20;23.10;99.90
40828;DHT22;26549;50.918;5.338;2023-07-13T15:09:46;23.30;99.50
40828;DHT22;26549;50.918;5.338;2023-07-13T15:12:13;23.40;98.40
40828;DHT22;26549;50.918;5.338;2023-07-13T15:14:39;23.30;98.10
40828;DHT22;26549;50.918;5.338;2023-07-13T15:17:05;23.40;97.70
40828;DHT22;26549;50.918;5.338;2023-07-13T15:19:31;23.70;97.80
40828;DHT22;26549;50.918;5.338;2023-07-13T15:21:58;23.60;97.70
40828;DHT22;26549;50.918;5.338;2023-07-13T15:24:25;23.80;97.20
40828;DHT22;26549;50.918;5.338;2023-07-13T15:26:50;23.90;97.00
40828;DHT22;26549;50.918;5.338;2023-07-13T15:29:18;23.80;96.90
40828;DHT22;26549;50.918;5.338;2023-07-13T15:31:44;24.00;97.10
40828;DHT22;26549;50.918;5.338;2023-07-13T15:34:13;24.10;96.60
40828;DHT22;26549;50.918;5.338;2023-07-13T15:36:40;24.30;96.00
40828;DHT22;26549;50.918;5.338;2023-07-13T15:39:06;24.40;96.10
40828;DHT22;26549;50.918;5.338;2023-07-13T15:41:33;24.30;96.30
40828;DHT22;26549;50.918;5.338;2023-07-13T15:44:05;24.20;96.40
40828;DHT22;26549;50.918;5.338;2023-07-13T15:46:39;24.40;96.10
40828;DHT22;26549;50.918;5.338;2023-07-13T15:49:09;24.50;95.60
40828;DHT22;26549;50.918;5.338;2023-07-13T15:51:35;24.60;95.40
40828;DHT22;26549;50.918;5.338;2023-07-13T15:54:02;24.60;95.80
40828;DHT22;26549;50.918;5.338;2023-07-13T15:56:35;24.80;96.10
40828;DHT22;26549;50.918;5.338;2023-07-13T15:59:01;24.70;95.00
40828;DHT22;26549;50.918;5.338;2023-07-13T16:01:28;24.90;94.90
40828;DHT22;26549;50.918;5.338;2023-07-13T16:03:54;25.00;93.90
40828;DHT22;26549;50.918;5.338;2023-07-13T16:06:25;24.80;94.30
40828;DHT22;26549;50.918;5.338;2023-07-13T16:08:53;24.50;93.80
40828;DHT22;26549;50.918;5.338;2023-07-13T16:11:26;24.60;93.10
40828;DHT22;26549;50.918;5.338;2023-07-13T16:13:54;24.60;93.30
40828;DHT22;26549;50.918;5.338;2023-07-13T16:16:28;24.40;93.60
40828;DHT22;26549;50.918;5.338;2023-07-13T16:19:02;24.40;94.10
40828;DHT22;26549;50.918;5.338;2023-07-13T16:21:31;24.30;94.40
40828;DHT22;26549;50.918;5.338;2023-07-13T16:23:58;24.30;94.40
40828;DHT22;26549;50.918;5.338;2023-07-13T16:26:35;24.30;94.60
40828;DHT22;26549;50.918;5.338;2023-07-13T16:29:13;24.30;94.00